Time;durP1;ratioP1;P1;durP2;ratioP2;P2;SDS_P1;SDS_P2;PMS_P1;PMS_P2;Temp;Humidity;BMP_temperature;BMP_pressure;BME280_temperature;BME280_humidity;BME280_pressure;Samples;Min_cycle;Max_cycle;Signal;HPM_P1;HPM_P2
2023/03/15 00:02:02;;;;;;;2.15;0.57;;;3.00;99.90;;;;;;4944062;28;21564;-44
2023/03/15 00:04:28;;;;;;;2.50;0.30;;;3.00;99.90;;;;;;4940995;28;20412;-45
2023/03/15 00:06:54;;;;;;;1.52;0.20;;;3.00;99.90;;;;;;4945373;28;20057;-41
2023/03/15 00:09:21;;;;;;;1.20;0.22;;;3.00;99.90;;;;;;4941513;28;20102;-42
2023/03/15 00:11:50;;;;;;;2.97;0.40;;;3.00;99.90;;;;;;4945414;28;21300;-41
2023/03/15 00:14:17;;;;;;;2.45;0.28;;;3.00;99.90;;;;;;4940678;28;20559;-41
2023/03/15 00:16:42;;;;;;;4.72;0.30;;;3.10;99.90;;;;;;4942526;28;20055;-42
2023/03/15 00:19:09;;;;;;;3.50;1.00;;;3.10;99.90;;;;;;4941165;28;20060;-41
2023/03/15 00:21:35;;;;;;;2.85;0.30;;;3.10;99.90;;;;;;4946517;28;20047;-41
2023/03/15 00:24:02;;;;;;;5.07;1.25;;;3.10;99.90;;;;;;4942285;28;20429;-40
2023/03/15 00:26:28;;;;;;;1.23;0.30;;;3.10;99.90;;;;;;4943853;28;20062;-42
2023/03/15 00:28:54;;;;;;;5.20;0.40;;;3.10;99.90;;;;;;4943951;28;20047;-41
2023/03/15 00:31:22;;;;;;;3.67;0.30;;;3.10;99.90;;;;;;4953878;28;20118;-40
2023/03/15 00:33:52;;;;;;;2.83;0.30;;;3.00;99.90;;;;;;4943809;28;20428;-41
2023/03/15 00:36:22;;;;;;;4.03;0.30;;;3.00;99.90;;;;;;4944683;28;20051;-42
2023/03/15 00:38:49;;;;;;;2.53;0.73;;;3.10;99.90;;;;;;4943645;28;20503;-41
2023/03/15 00:41:16;;;;;;;2.65;0.20;;;3.00;99.90;;;;;;4940514;28;20050;-41
2023/03/15 00:43:43;;;;;;;4.93;0.20;;;3.00;99.90;;;;;;4937492;28;20059;-43
2023/03/15 00:46:09;;;;;;;2.92;0.38;;;3.00;99.90;;;;;;4941209;28;20493;-42
2023/03/15 00:48:35;;;;;;;2.58;0.20;;;3.00;99.90;;;;;;4943055;28;20043;-41
2023/03/15 00:51:12;;;;;;;3.28;0.30;;;3.10;99.90;;;;;;4940589;28;20888;-42
2023/03/15 00:53:40;;;;;;;6.45;2.05;;;3.10;99.90;;;;;;4937064;28;20051;-43
2023/03/15 00:56:08;;;;;;;1.60;0.25;;;3.20;99.90;;;;;;4937103;28;20047;-41
2023/03/15 00:58:35;;;;;;;4.68;0.32;;;3.20;99.90;;;;;;4940961;28;20051;-41
2023/03/15 01:01:23;;;;;;;1.65;0.20;;;3.10;99.90;;;;;;4939717;28;20075;-43
2023/03/15 01:03:49;;;;;;;2.17;0.45;;;3.10;99.90;;;;;;4943064;28;20086;-40
2023/03/15 01:06:27;;;;;;;4.13;0.45;;;3.00;99.90;;;;;;4944191;28;20054;-43
2023/03/15 01:08:56;;;;;;;1.60;0.20;;;3.00;99.90;;;;;;4944181;28;20051;-41
2023/03/15 01:11:25;;;;;;;1.73;0.20;;;3.00;99.90;;;;;;4942769;28;20055;-41
2023/03/15 01:13:52;;;;;;;3.22;0.40;;;3.00;99.90;;;;;;4938408;28;20058;-40
2023/03/15 01:16:18;;;;;;;2.70;0.50;;;3.00;99.90;;;;;;4943611;28;20047;-40
2023/03/15 01:18:44;;;;;;;1.13;0.20;;;3.10;99.90;;;;;;4940790;28;20066;-42
2023/03/15 01:21:11;;;;;;;5.70;0.50;;;3.10;99.90;;;;;;4943483;28;20138;-42
2023/03/15 01:23:37;;;;;;;1.98;0.40;;;3.00;99.90;;;;;;4942536;28;20054;-41
2023/03/15 01:26:05;;;;;;;2.58;0.30;;;3.00;99.90;;;;;;4944820;28;20058;-42
2023/03/15 01:28:31;;;;;;;2.55;0.40;;;3.10;99.90;;;;;;4956568;28;20063;-41
2023/03/15 01:30:57;;;;;;;1.65;0.20;;;3.10;99.90;;;;;;4939727;28;20724;-42
2023/03/15 01:33:22;;;;;;;1.83;0.30;;;3.20;99.90;;;;;;4938765;28;20051;-51
2023/03/15 01:36:00;;;;;;;3.40;1.00;;;3.30;99.90;;;;;;4940379;28;20050;-41
2023/03/15 01:38:26;;;;;;;4.22;0.50;;;3.30;99.90;;;;;;4943308;28;20078;-42
2023/03/15 01:40:51;;;;;;;2.88;0.40;;;3.30;99.90;;;;;;4942810;28;20043;-42
2023/03/15 01:43:23;;;;;;;4.72;0.35;;;3.20;99.90;;;;;;4942664;28;20078;-44
2023/03/15 01:45:51;;;;;;;1.88;0.30;;;3.20;99.90;;;;;;4944675;28;20879;-41
2023/03/15 01:48:18;;;;;;;4.38;0.32;;;3.10;99.90;;;;;;4937760;28;20044;-40
2023/03/15 01:50:44;;;;;;;5.85;0.45;;;3.00;99.90;;;;;;4941874;28;20051;-42
2023/03/15 01:53:11;;;;;;;2.60;0.20;;;3.00;99.90;;;;;;4940983;28;20047;-41
2023/03/15 01:55:37;;;;;;;5.00;0.50;;;3.00;99.90;;;;;;4942098;28;20101;-42
2023/03/15 01:58:05;;;;;;;2.40;0.40;;;2.90;99.90;;;;;;4940892;28;20078;-41
2023/03/15 02:00:32;;;;;;;4.57;0.38;;;2.90;99.90;;;;;;4939786;28;20146;-40
2023/03/15 02:03:16;;;;;;;5.63;0.20;;;2.80;99.90;;;;;;4940452;28;20043;-42
2023/03/15 02:05:48;;;;;;;7.22;0.40;;;2.80;99.90;;;;;;4939076;28;20208;-41
2023/03/15 02:08:16;;;;;;;5.00;0.40;;;2.80;99.90;;;;;;4941996;28;20055;-42
2023/03/15 02:10:45;;;;;;;4.70;0.30;;;2.70;99.90;;;;;;4943177;28;20046;-40
2023/03/15 02:13:15;;;;;;;2.67;0.40;;;2.70;99.90;;;;;;4940323;28;20456;-41
2023/03/15 02:15:45;;;;;;;2.42;0.20;;;2.70;99.90;;;;;;4939747;28;20047;-42
2023/03/15 02:18:12;;;;;;;4.75;0.77;;;2.70;99.90;;;;;;4942187;28;20058;-42
2023/03/15 02:20:48;;;;;;;4.45;0.40;;;2.60;99.90;;;;;;4943114;28;20055;-42
2023/03/15 02:23:18;;;;;;;5.00;0.85;;;2.60;99.90;;;;;;4940394;28;20061;-41
2023/03/15 02:26:18;;;;;;;2.20;0.55;;;2.50;99.90;;;;;;4943927;28;21555;-42
2023/03/15 02:28:44;;;;;;;2.58;0.35;;;2.40;99.90;;;;;;4940557;28;20142;-41
2023/03/15 02:31:10;;;;;;;3.03;0.20;;;2.40;99.90;;;;;;4942809;28;20292;-42
2023/03/15 02:33:40;;;;;;;2.72;0.10;;;2.30;99.90;;;;;;4939138;28;20412;-40
2023/03/15 02:36:10;;;;;;;1.75;0.20;;;2.30;99.90;;;;;;4942027;28;20083;-41
2023/03/15 02:38:36;;;;;;;3.58;0.38;;;2.20;99.90;;;;;;4938730;29;20477;-41
2023/03/15 02:41:02;;;;;;;2.33;0.20;;;2.20;99.90;;;;;;4937955;28;20051;-40
2023/03/15 02:43:31;;;;;;;4.00;0.20;;;2.10;99.90;;;;;;4941531;28;20067;-42
2023/03/15 02:45:57;;;;;;;6.45;0.63;;;2.20;99.90;;;;;;4940235;28;20126;-41
2023/03/15 02:48:23;;;;;;;3.25;0.70;;;2.10;99.90;;;;;;4938776;28;20057;-43
2023/03/15 02:50:49;;;;;;;3.75;0.52;;;2.10;99.90;;;;;;4941330;28;20051;-41
2023/03/15 02:53:14;;;;;;;3.42;0.40;;;2.10;99.90;;;;;;4941029;28;20075;-42
2023/03/15 02:55:40;;;;;;;5.20;0.38;;;2.10;99.90;;;;;;4942689;28;20055;-42
2023/03/15 02:58:06;;;;;;;4.75;1.08;;;2.10;99.90;;;;;;4939795;28;20091;-41
2023/03/15 03:00:31;;;;;;;4.88;0.35;;;2.10;99.90;;;;;;4939588;28;20085;-40
2023/03/15 03:02:57;;;;;;;7.93;0.40;;;2.10;99.90;;;;;;4934504;28;20069;-40
2023/03/15 03:05:23;;;;;;;7.38;0.43;;;2.10;99.90;;;;;;4938763;28;20065;-41
2023/03/15 03:07:49;;;;;;;4.60;0.77;;;2.10;99.90;;;;;;4943019;28;20061;-39
2023/03/15 03:10:17;;;;;;;2.40;0.47;;;2.10;99.90;;;;;;4943671;28;20519;-47
2023/03/15 03:12:43;;;;;;;5.75;0.50;;;2.00;99.90;;;;;;4944947;28;20055;-41
2023/03/15 03:15:10;;;;;;;3.05;0.45;;;2.00;99.90;;;;;;4942794;28;20456;-42
2023/03/15 03:17:36;;;;;;;2.42;0.43;;;1.90;99.90;;;;;;4942693;28;20058;-43
2023/03/15 03:20:12;;;;;;;1.98;0.20;;;1.80;99.90;;;;;;4936828;28;20063;-42
2023/03/15 03:22:39;;;;;;;5.43;0.35;;;1.80;99.90;;;;;;4943935;28;20098;-41
2023/03/15 03:25:06;;;;;;;3.05;0.80;;;1.70;99.90;;;;;;4940573;28;20058;-40
2023/03/15 03:27:35;;;;;;;6.07;0.70;;;1.70;99.90;;;;;;4942739;28;20056;-41
2023/03/15 03:30:05;;;;;;;2.53;0.30;;;1.60;99.90;;;;;;4947491;28;20120;-40
2023/03/15 03:32:31;;;;;;;5.60;0.40;;;1.60;99.90;;;;;;4942464;28;20145;-42
2023/03/15 03:34:56;;;;;;;7.97;0.47;;;1.60;99.90;;;;;;4945876;28;20047;-40
2023/03/15 03:37:22;;;;;;;2.35;0.32;;;1.60;99.90;;;;;;4945832;28;20067;-41
2023/03/15 03:39:48;;;;;;;3.60;0.40;;;1.60;99.90;;;;;;4942379;28;20493;-39
2023/03/15 03:42:13;;;;;;;2.97;0.28;;;1.60;99.90;;;;;;4948888;28;20402;-42
2023/03/15 03:44:40;;;;;;;3.53;0.38;;;1.50;99.90;;;;;;4946523;28;20413;-41
2023/03/15 03:47:07;;;;;;;3.78;0.43;;;1.50;99.90;;;;;;4944460;28;20062;-40
2023/03/15 03:49:32;;;;;;;9.57;1.17;;;1.50;99.90;;;;;;4945770;28;20074;-41
2023/03/15 03:52:01;;;;;;;4.55;0.32;;;1.50;99.90;;;;;;4945804;28;20074;-41
2023/03/15 03:54:27;;;;;;;3.60;0.20;;;1.50;99.90;;;;;;4941135;28;20062;-40
2023/03/15 03:56:52;;;;;;;1.85;0.30;;;1.50;99.90;;;;;;4942607;28;20051;-43
2023/03/15 03:59:18;;;;;;;1.73;0.20;;;1.50;99.90;;;;;;4941691;28;20448;-40
2023/03/15 04:01:44;;;;;;;2.70;0.30;;;1.50;99.90;;;;;;4945777;28;20055;-41
2023/03/15 04:04:12;;;;;;;1.45;0.30;;;1.50;99.90;;;;;;4941673;28;20508;-41
2023/03/15 04:06:44;;;;;;;2.28;0.30;;;1.50;99.90;;;;;;4944206;28;20059;-41
2023/03/15 04:09:15;;;;;;;3.53;0.30;;;1.60;99.90;;;;;;4942527;28;20043;-41
2023/03/15 04:11:42;;;;;;;4.38;0.43;;;1.60;99.90;;;;;;4947487;28;20074;-46
2023/03/15 04:14:09;;;;;;;4.57;0.50;;;1.60;99.90;;;;;;4940807;28;20571;-41
2023/03/15 04:16:36;;;;;;;2.50;0.32;;;1.60;99.90;;;;;;4944356;28;20493;-41
2023/03/15 04:19:02;;;;;;;6.18;0.35;;;1.60;99.90;;;;;;4945401;28;20708;-40
2023/03/15 04:21:30;;;;;;;7.28;0.60;;;1.60;99.90;;;;;;4943357;28;20051;-40
2023/03/15 04:24:02;;;;;;;5.72;0.50;;;1.70;99.90;;;;;;4936885;28;20130;-41
2023/03/15 04:26:28;;;;;;;4.32;0.30;;;1.70;99.90;;;;;;4946193;28;20058;-41
2023/03/15 04:28:56;;;;;;;4.13;0.32;;;1.70;99.90;;;;;;4943186;28;20062;-40
2023/03/15 04:31:27;;;;;;;5.07;0.40;;;1.80;99.90;;;;;;4958261;28;20465;-41
2023/03/15 04:33:53;;;;;;;3.67;0.40;;;1.80;99.90;;;;;;4941392;28;20522;-39
2023/03/15 04:36:21;;;;;;;3.35;0.63;;;1.80;99.90;;;;;;4942144;28;22570;-40
2023/03/15 04:38:47;;;;;;;3.70;0.25;;;1.80;99.90;;;;;;4940885;28;20074;-40
2023/03/15 04:41:14;;;;;;;2.53;0.40;;;1.80;99.90;;;;;;4941031;28;20421;-41
2023/03/15 04:43:40;;;;;;;3.50;0.40;;;1.80;99.90;;;;;;4943789;28;20494;-42
2023/03/15 04:46:06;;;;;;;2.17;0.55;;;1.90;99.90;;;;;;4942145;28;20058;-42
2023/03/15 04:48:32;;;;;;;3.05;0.43;;;1.90;99.90;;;;;;4940040;28;20047;-39
2023/03/15 04:50:58;;;;;;;3.20;0.40;;;1.90;99.90;;;;;;4941981;28;20493;-41
2023/03/15 04:53:24;;;;;;;5.32;0.52;;;1.90;99.90;;;;;;4937374;28;20193;-40
2023/03/15 04:55:49;;;;;;;5.38;0.30;;;1.90;99.90;;;;;;4940710;28;20121;-40
2023/03/15 04:58:15;;;;;;;4.43;0.30;;;1.90;99.90;;;;;;4942786;28;20052;-40
2023/03/15 05:00:41;;;;;;;4.40;0.57;;;1.90;99.90;;;;;;4940241;28;20073;-39
2023/03/15 05:03:07;;;;;;;3.75;0.45;;;1.80;99.90;;;;;;4937979;28;20082;-41
2023/03/15 05:05:33;;;;;;;3.00;0.70;;;1.80;99.90;;;;;;4942383;28;20050;-40
2023/03/15 05:07:58;;;;;;;4.15;0.28;;;1.80;99.90;;;;;;4946304;28;20059;-40
2023/03/15 05:10:24;;;;;;;3.40;0.40;;;1.80;99.90;;;;;;4942303;28;20494;-40
2023/03/15 05:12:50;;;;;;;1.77;0.20;;;1.80;99.90;;;;;;4942707;28;20062;-42
2023/03/15 05:15:17;;;;;;;4.57;0.38;;;1.80;99.90;;;;;;4939209;28;20055;-40
2023/03/15 05:17:45;;;;;;;2.28;0.10;;;1.80;99.90;;;;;;4941519;28;20054;-43
2023/03/15 05:20:15;;;;;;;5.15;0.28;;;1.80;99.90;;;;;;4940293;28;20150;-40
2023/03/15 05:22:42;;;;;;;2.30;0.17;;;1.80;99.90;;;;;;4942819;28;20149;-40
2023/03/15 05:25:09;;;;;;;0.80;0.10;;;1.80;99.90;;;;;;4940306;28;20565;-40
2023/03/15 05:27:35;;;;;;;2.35;0.30;;;1.90;99.90;;;;;;4941895;28;20046;-40
2023/03/15 05:30:02;;;;;;;2.40;0.20;;;1.90;99.90;;;;;;4942241;28;20398;-41
2023/03/15 05:32:28;;;;;;;2.67;0.30;;;1.80;99.90;;;;;;4939604;28;20596;-40
2023/03/15 05:34:54;;;;;;;1.50;0.20;;;1.90;99.90;;;;;;4942260;28;20051;-43
2023/03/15 05:37:23;;;;;;;1.33;0.20;;;1.90;99.90;;;;;;4944366;28;20059;-41
2023/03/15 05:39:48;;;;;;;1.27;0.20;;;1.80;99.90;;;;;;4940646;28;20067;-40
2023/03/15 05:42:15;;;;;;;3.63;0.20;;;1.80;99.90;;;;;;4942692;28;20520;-41
2023/03/15 05:44:40;;;;;;;4.03;0.20;;;1.80;99.90;;;;;;4940635;28;20062;-38
2023/03/15 05:47:06;;;;;;;2.55;0.30;;;1.80;99.90;;;;;;4942201;28;20062;-41
2023/03/15 05:49:32;;;;;;;3.00;0.50;;;1.90;99.90;;;;;;4937996;28;20058;-41
2023/03/15 05:51:57;;;;;;;5.93;0.32;;;1.90;99.90;;;;;;4940031;28;20075;-40
2023/03/15 05:54:23;;;;;;;4.60;0.30;;;1.90;99.90;;;;;;4940197;28;20081;-41
2023/03/15 05:56:49;;;;;;;4.47;0.30;;;1.90;99.90;;;;;;4944407;28;20051;-42
2023/03/15 05:59:14;;;;;;;1.17;0.10;;;1.90;99.90;;;;;;4938464;28;20052;-41
2023/03/15 06:01:40;;;;;;;4.13;0.40;;;1.90;99.90;;;;;;4942470;28;20561;-42
2023/03/15 06:04:06;;;;;;;2.35;0.20;;;1.90;99.90;;;;;;4938435;28;20063;-42
2023/03/15 06:06:31;;;;;;;1.92;0.30;;;1.90;99.90;;;;;;4942560;28;20055;-41
2023/03/15 06:08:57;;;;;;;3.65;0.20;;;1.90;99.90;;;;;;4941451;28;20163;-40
2023/03/15 06:11:23;;;;;;;6.50;0.47;;;1.90;99.90;;;;;;4940603;28;20050;-41
2023/03/15 06:13:48;;;;;;;1.10;0.28;;;1.90;99.90;;;;;;4939685;28;20051;-40
2023/03/15 06:16:14;;;;;;;3.40;0.30;;;1.90;99.90;;;;;;4940499;28;20138;-40
2023/03/15 06:18:40;;;;;;;2.13;0.20;;;1.90;99.90;;;;;;4940270;28;20082;-40
2023/03/15 06:21:05;;;;;;;1.25;0.10;;;1.90;99.90;;;;;;4942906;28;20107;-41
2023/03/15 06:23:31;;;;;;;2.22;0.20;;;1.80;99.90;;;;;;4943580;28;20141;-40
2023/03/15 06:25:57;;;;;;;4.97;0.20;;;1.80;99.90;;;;;;4936379;28;20043;-40
2023/03/15 06:28:22;;;;;;;3.42;0.38;;;1.80;99.90;;;;;;4938109;28;20074;-40
2023/03/15 06:30:48;;;;;;;1.42;0.20;;;1.80;99.90;;;;;;4939337;28;20055;-38
2023/03/15 06:33:13;;;;;;;1.13;0.10;;;1.70;99.90;;;;;;4933782;28;20047;-40
2023/03/15 06:35:39;;;;;;;0.95;0.10;;;1.70;99.90;;;;;;4940425;28;20134;-41
2023/03/15 06:38:05;;;;;;;1.90;0.15;;;1.70;99.90;;;;;;4940541;28;20208;-40
2023/03/15 06:40:31;;;;;;;4.53;0.20;;;1.70;99.90;;;;;;4938502;28;20564;-40
2023/03/15 06:42:56;;;;;;;1.42;0.10;;;1.70;99.90;;;;;;4934817;28;20146;-41
2023/03/15 06:45:22;;;;;;;1.88;0.10;;;1.70;99.90;;;;;;4938404;28;20464;-41
2023/03/15 06:47:47;;;;;;;0.50;0.17;;;1.70;99.90;;;;;;4935326;28;20513;-39
2023/03/15 06:50:13;;;;;;;1.70;0.20;;;1.70;99.90;;;;;;4943016;28;20580;-41
2023/03/15 06:52:39;;;;;;;3.17;0.30;;;1.70;99.90;;;;;;4938816;28;20047;-43
2023/03/15 06:55:05;;;;;;;3.85;0.28;;;1.70;99.90;;;;;;4937540;28;20052;-40
2023/03/15 06:57:31;;;;;;;1.98;0.30;;;1.70;99.90;;;;;;4933836;28;20047;-40
2023/03/15 06:59:56;;;;;;;3.45;0.28;;;1.70;99.90;;;;;;4933023;28;20069;-40
2023/03/15 07:02:22;;;;;;;3.75;0.40;;;1.70;99.90;;;;;;4931496;28;20689;-40
2023/03/15 07:04:48;;;;;;;3.47;0.50;;;1.80;99.90;;;;;;4936043;28;20657;-40
2023/03/15 07:07:14;;;;;;;10.18;3.72;;;1.90;99.90;;;;;;4937473;28;20083;-40
2023/03/15 07:09:40;;;;;;;15.05;3.72;;;2.00;99.90;;;;;;4935708;28;20058;-40
2023/03/15 07:12:07;;;;;;;15.40;3.92;;;2.00;99.90;;;;;;4938396;28;20057;-40
2023/03/15 07:14:33;;;;;;;13.15;3.10;;;2.10;99.90;;;;;;4935895;28;20125;-39
2023/03/15 07:16:59;;;;;;;11.00;2.15;;;2.20;99.90;;;;;;4938057;28;20058;-40
2023/03/15 07:19:25;;;;;;;7.93;1.50;;;2.30;99.90;;;;;;4931961;28;20063;-40
2023/03/15 07:21:50;;;;;;;11.88;2.25;;;2.30;99.90;;;;;;4946808;28;20046;-38
2023/03/15 07:24:16;;;;;;;9.27;2.05;;;2.40;99.90;;;;;;4942993;28;20055;-40
2023/03/15 07:26:42;;;;;;;5.38;1.48;;;2.40;99.90;;;;;;4945832;28;20139;-40
2023/03/15 07:29:08;;;;;;;8.25;1.80;;;2.50;99.90;;;;;;4942787;28;20141;-40
2023/03/15 07:31:34;;;;;;;6.45;1.42;;;2.60;99.90;;;;;;4939961;28;20078;-40
2023/03/15 07:33:59;;;;;;;3.83;0.80;;;2.70;99.90;;;;;;4940740;28;20142;-39
2023/03/15 07:36:25;;;;;;;4.60;0.70;;;2.80;99.90;;;;;;4933525;28;20051;-41
2023/03/15 07:38:51;;;;;;;4.15;0.50;;;2.90;99.90;;;;;;4941378;28;20055;-39
2023/03/15 07:41:16;;;;;;;0.80;0.32;;;3.00;99.90;;;;;;4938193;28;20142;-41
2023/03/15 07:43:42;;;;;;;1.80;0.30;;;3.10;99.90;;;;;;4940097;28;20479;-41
2023/03/15 07:46:08;;;;;;;2.33;0.55;;;3.20;99.90;;;;;;4942521;28;20088;-40
2023/03/15 07:48:33;;;;;;;2.88;0.40;;;3.30;99.90;;;;;;4944648;28;20047;-40
2023/03/15 07:50:59;;;;;;;2.75;0.35;;;3.40;99.90;;;;;;4944590;28;20121;-43
2023/03/15 07:53:25;;;;;;;3.70;0.30;;;3.50;99.90;;;;;;4943848;28;20043;-41
2023/03/15 07:55:51;;;;;;;2.40;0.22;;;3.50;99.90;;;;;;4941702;28;21494;-41
2023/03/15 07:58:16;;;;;;;2.08;0.40;;;3.70;99.90;;;;;;4943469;28;20054;-41
2023/03/15 08:00:42;;;;;;;4.28;0.93;;;3.70;99.90;;;;;;4937309;28;20084;-40
2023/03/15 08:03:08;;;;;;;8.73;1.48;;;3.80;99.90;;;;;;4945544;28;20051;-41
2023/03/15 08:05:34;;;;;;;5.63;1.20;;;3.90;99.90;;;;;;4941214;28;20960;-41
2023/03/15 08:08:00;;;;;;;5.82;0.40;;;3.90;99.90;;;;;;4945445;28;20509;-41
2023/03/15 08:10:26;;;;;;;1.83;0.40;;;4.00;99.90;;;;;;4943144;28;20058;-42
2023/03/15 08:12:52;;;;;;;8.80;1.50;;;4.10;99.90;;;;;;4943105;28;20062;-41
2023/03/15 08:15:18;;;;;;;7.15;1.13;;;4.10;99.90;;;;;;4938344;28;20063;-40
2023/03/15 08:17:46;;;;;;;3.97;0.82;;;4.20;99.90;;;;;;4944507;28;20599;-42
2023/03/15 08:20:16;;;;;;;4.53;0.43;;;4.30;99.90;;;;;;4941425;28;20154;-40
2023/03/15 08:22:45;;;;;;;4.97;0.40;;;4.30;99.90;;;;;;4941246;28;20066;-40
2023/03/15 08:25:13;;;;;;;3.63;0.32;;;4.40;99.90;;;;;;4942017;28;20050;-40
2023/03/15 08:27:39;;;;;;;2.22;0.20;;;4.50;99.90;;;;;;4940367;28;20580;-40
2023/03/15 08:30:05;;;;;;;3.25;0.77;;;4.60;99.90;;;;;;4942118;28;20055;-40
2023/03/15 08:32:31;;;;;;;4.80;0.43;;;4.70;99.90;;;;;;4942040;28;20076;-51
2023/03/15 08:34:57;;;;;;;2.50;0.43;;;4.90;99.90;;;;;;4944817;28;20136;-41
2023/03/15 08:37:23;;;;;;;2.90;0.40;;;4.90;99.90;;;;;;4941928;28;20063;-41
2023/03/15 08:39:56;;;;;;;3.03;0.32;;;4.80;99.90;;;;;;4941086;28;20074;-41
2023/03/15 08:42:22;;;;;;;4.13;0.57;;;4.80;99.90;;;;;;4936956;28;20087;-40
2023/03/15 08:44:48;;;;;;;4.07;0.40;;;4.70;99.90;;;;;;4938628;28;20087;-39
2023/03/15 08:47:13;;;;;;;5.97;0.55;;;4.70;99.90;;;;;;4946899;28;20066;-40
2023/03/15 08:49:39;;;;;;;1.73;0.20;;;4.70;99.90;;;;;;4944622;28;20062;-39
2023/03/15 08:52:05;;;;;;;3.08;0.30;;;4.80;99.90;;;;;;4943389;28;20153;-41
2023/03/15 08:54:30;;;;;;;2.42;0.22;;;4.90;99.90;;;;;;4939092;28;20051;-41
2023/03/15 08:56:56;;;;;;;3.28;0.50;;;5.00;99.90;;;;;;4947873;28;20058;-42
2023/03/15 08:59:22;;;;;;;3.40;0.40;;;5.10;99.90;;;;;;4938165;28;20067;-40
2023/03/15 09:01:47;;;;;;;4.25;0.40;;;5.20;99.90;;;;;;4944599;28;20082;-40
2023/03/15 09:04:13;;;;;;;5.45;0.40;;;5.20;99.80;;;;;;4938067;28;21026;-41
2023/03/15 09:06:39;;;;;;;2.78;0.28;;;5.30;98.60;;;;;;4944298;28;20051;-41
2023/03/15 09:09:05;;;;;;;2.28;0.40;;;5.20;98.70;;;;;;4932680;28;20599;-41
2023/03/15 09:11:31;;;;;;;2.53;0.30;;;5.20;99.00;;;;;;4939843;28;20097;-46
2023/03/15 09:13:56;;;;;;;4.82;0.60;;;5.20;98.70;;;;;;4941774;28;20074;-41
2023/03/15 09:16:22;;;;;;;3.63;0.40;;;5.30;98.80;;;;;;4936541;28;20106;-42
2023/03/15 09:18:48;;;;;;;6.63;0.55;;;5.30;99.00;;;;;;4942960;28;20518;-42
2023/03/15 09:21:13;;;;;;;3.95;0.40;;;5.40;99.00;;;;;;4939607;28;20592;-41
2023/03/15 09:23:39;;;;;;;4.72;0.40;;;5.60;99.30;;;;;;4939589;28;20849;-41
2023/03/15 09:26:05;;;;;;;4.20;0.80;;;5.60;98.30;;;;;;4940315;28;20512;-39
2023/03/15 09:28:30;;;;;;;2.78;0.43;;;5.70;98.30;;;;;;4942810;28;20271;-41
2023/03/15 09:30:56;;;;;;;5.55;0.90;;;5.80;97.10;;;;;;4939985;29;20051;-41
2023/03/15 09:33:22;;;;;;;6.40;0.30;;;5.70;97.60;;;;;;4940928;28;20063;-41
2023/03/15 09:35:53;;;;;;;5.57;0.40;;;5.70;98.00;;;;;;4939829;28;20055;-41
2023/03/15 09:38:19;;;;;;;2.63;0.38;;;5.50;96.60;;;;;;4936783;28;20047;-41
2023/03/15 09:40:45;;;;;;;3.67;1.05;;;5.40;97.30;;;;;;4944250;28;20059;-42
2023/03/15 09:43:12;;;;;;;3.42;0.32;;;5.50;97.40;;;;;;4929068;28;20051;-41
2023/03/15 09:45:50;;;;;;;2.60;0.40;;;5.50;98.20;;;;;;4936504;28;20060;-41
2023/03/15 09:48:20;;;;;;;6.57;0.73;;;5.60;98.30;;;;;;4942194;28;20078;-39
2023/03/15 09:50:51;;;;;;;3.15;0.88;;;5.80;97.50;;;;;;4956450;28;20085;-43
2023/03/15 09:53:38;;;;;;;2.75;0.60;;;5.90;97.60;;;;;;4940254;28;20071;-41
2023/03/15 09:56:30;;;;;;;4.10;0.60;;;6.10;97.50;;;;;;4939611;28;20497;-40
2023/03/15 09:58:58;;;;;;;2.80;0.30;;;6.00;95.80;;;;;;4941114;28;20489;-41
2023/03/15 10:01:30;;;;;;;2.67;0.40;;;5.90;96.50;;;;;;4937244;28;21126;-40
2023/03/15 10:03:55;;;;;;;3.53;0.22;;;5.90;96.00;;;;;;4941860;28;20079;-39
2023/03/15 10:06:27;;;;;;;5.15;0.55;;;5.90;96.10;;;;;;4940963;28;20055;-40
2023/03/15 10:08:58;;;;;;;2.83;0.30;;;6.10;95.30;;;;;;4936310;28;20130;-41
2023/03/15 10:11:45;;;;;;;3.60;0.28;;;6.20;94.20;;;;;;4945521;28;20330;-41
2023/03/15 10:14:19;;;;;;;4.10;0.70;;;6.20;94.30;;;;;;4938523;28;20052;-44
2023/03/15 10:16:47;;;;;;;6.18;0.50;;;6.10;94.00;;;;;;4939804;28;20062;-40
2023/03/15 10:19:31;;;;;;;4.97;0.50;;;6.10;94.00;;;;;;4941052;28;20051;-42
2023/03/15 10:22:23;;;;;;;3.70;0.35;;;6.20;93.60;;;;;;4939210;28;20047;-41
2023/03/15 10:25:03;;;;;;;2.35;0.30;;;6.50;94.10;;;;;;4928708;28;20564;-42
2023/03/15 10:27:42;;;;;;;4.80;0.52;;;6.70;91.60;;;;;;4938486;28;20587;-41
2023/03/15 10:30:20;;;;;;;2.45;0.30;;;6.60;90.20;;;;;;4940304;28;20465;-40
2023/03/15 10:32:52;;;;;;;5.78;0.43;;;6.40;90.90;;;;;;4937723;28;20062;-38
2023/03/15 10:35:20;;;;;;;6.60;1.20;;;6.40;91.40;;;;;;4934388;28;20405;-41
2023/03/15 10:37:46;;;;;;;5.88;0.55;;;6.50;92.00;;;;;;4936434;29;20190;-40
2023/03/15 10:40:15;;;;;;;3.28;0.50;;;6.70;92.70;;;;;;4938528;28;20051;-41
2023/03/15 10:42:43;;;;;;;4.78;0.57;;;6.90;91.50;;;;;;4937249;28;20146;-41
2023/03/15 10:45:27;;;;;;;5.60;0.60;;;7.10;91.80;;;;;;4938788;28;20066;-43
2023/03/15 10:47:54;;;;;;;5.63;0.52;;;7.20;89.80;;;;;;4943183;28;20114;-40
2023/03/15 10:50:29;;;;;;;2.53;0.30;;;7.00;88.60;;;;;;4942332;28;20062;-40
2023/03/15 10:52:57;;;;;;;5.80;0.73;;;6.80;87.30;;;;;;4933559;28;20515;-38
2023/03/15 10:55:42;;;;;;;10.40;0.93;;;6.60;89.20;;;;;;4944473;28;20469;-43
2023/03/15 10:58:30;;;;;;;4.40;0.50;;;6.50;89.20;;;;;;4938749;28;20529;-40
2023/03/15 11:01:08;;;;;;;4.93;0.30;;;6.40;89.50;;;;;;4935931;28;20066;-40
2023/03/15 11:03:35;;;;;;;3.25;0.60;;;6.30;90.50;;;;;;4940113;28;20416;-40
2023/03/15 11:06:17;;;;;;;3.88;0.40;;;6.30;91.10;;;;;;4942000;28;20062;-41
2023/03/15 11:08:42;;;;;;;3.97;0.40;;;6.40;91.30;;;;;;4940353;28;20579;-41
2023/03/15 11:11:09;;;;;;;4.97;0.82;;;6.70;91.20;;;;;;4945229;28;20141;-44
2023/03/15 11:13:36;;;;;;;5.13;0.40;;;6.90;91.20;;;;;;4939937;28;20210;-51
2023/03/15 11:16:18;;;;;;;1.17;0.32;;;6.80;91.10;;;;;;4942277;28;20054;-41
2023/03/15 11:18:56;;;;;;;3.92;0.55;;;6.70;90.30;;;;;;4936658;28;20058;-41
2023/03/15 11:21:32;;;;;;;4.15;0.73;;;6.60;89.80;;;;;;4937336;28;20122;-42
2023/03/15 11:24:02;;;;;;;3.38;0.38;;;6.80;90.10;;;;;;4943957;28;20047;-42
2023/03/15 11:26:31;;;;;;;4.95;0.30;;;7.00;90.90;;;;;;4920007;29;20039;-40
2023/03/15 11:29:17;;;;;;;2.28;0.30;;;7.00;88.60;;;;;;4940458;28;20106;-41
2023/03/15 11:31:43;;;;;;;2.83;0.50;;;7.00;87.80;;;;;;4938716;29;20040;-42
2023/03/15 11:34:36;;;;;;;2.95;0.30;;;7.10;86.50;;;;;;4945820;29;20437;-40
2023/03/15 11:37:12;;;;;;;6.00;0.38;;;7.30;84.90;;;;;;4937383;28;20138;-39
2023/03/15 11:39:44;;;;;;;3.65;0.38;;;7.50;82.70;;;;;;4940263;28;20067;-40
2023/03/15 11:42:16;;;;;;;5.00;0.35;;;7.60;83.80;;;;;;4941430;28;20062;-45
2023/03/15 11:44:53;;;;;;;1.23;0.20;;;7.60;82.40;;;;;;4941442;29;20055;-42
2023/03/15 11:47:24;;;;;;;3.28;0.20;;;7.80;81.00;;;;;;4944343;28;20114;-45
2023/03/15 11:49:53;;;;;;;2.60;0.30;;;7.90;80.90;;;;;;4940397;28;20066;-40
2023/03/15 11:52:22;;;;;;;2.95;0.30;;;8.10;81.60;;;;;;4939513;28;20102;-41
2023/03/15 11:54:49;;;;;;;5.47;0.55;;;8.20;76.70;;;;;;4936296;28;20106;-40
2023/03/15 11:57:34;;;;;;;3.58;0.45;;;8.30;76.60;;;;;;4942358;28;20055;-42
2023/03/15 12:00:15;;;;;;;2.60;0.35;;;8.40;73.60;;;;;;4945030;28;20074;-41
2023/03/15 12:02:54;;;;;;;5.60;0.30;;;8.50;71.50;;;;;;4939609;28;20509;-40
2023/03/15 12:05:43;;;;;;;1.05;0.20;;;8.60;77.00;;;;;;4939834;28;20181;-42
2023/03/15 12:08:39;;;;;;;4.63;0.40;;;8.80;74.70;;;;;;4940748;28;20078;-41
2023/03/15 12:11:20;;;;;;;2.28;0.30;;;8.70;72.10;;;;;;4941601;28;20159;-42
2023/03/15 12:14:19;;;;;;;5.25;0.70;;;8.30;68.60;;;;;;4943082;28;20094;-39
2023/03/15 12:16:45;;;;;;;4.78;0.50;;;7.90;70.60;;;;;;4940147;28;20062;-40
2023/03/15 12:19:19;;;;;;;5.28;0.50;;;7.80;74.30;;;;;;4943204;28;20110;-39
2023/03/15 12:21:58;;;;;;;4.47;0.40;;;8.00;75.30;;;;;;4942200;28;20412;-41
2023/03/15 12:24:36;;;;;;;3.22;0.40;;;8.30;73.80;;;;;;4938860;28;20057;-41
2023/03/15 12:27:12;;;;;;;2.35;0.25;;;8.60;70.70;;;;;;4942692;28;20054;-41
2023/03/15 12:29:38;;;;;;;1.42;0.30;;;9.10;68.90;;;;;;4942327;28;20047;-41
2023/03/15 12:32:12;;;;;;;2.38;0.45;;;9.40;65.40;;;;;;4936598;28;20517;-41
2023/03/15 12:34:53;;;;;;;1.85;0.47;;;9.40;65.70;;;;;;4937321;28;20591;-40
2023/03/15 12:37:21;;;;;;;3.60;0.47;;;9.20;64.80;;;;;;4941127;28;20059;-41
2023/03/15 12:39:49;;;;;;;2.10;0.45;;;9.50;64.80;;;;;;4933678;28;20059;-42
2023/03/15 12:42:30;;;;;;;3.40;0.50;;;9.80;64.00;;;;;;4935269;28;20524;-41
2023/03/15 12:45:14;;;;;;;3.78;0.55;;;10.00;64.10;;;;;;4937383;28;20508;-41
2023/03/15 12:47:48;;;;;;;1.58;0.30;;;10.60;62.20;;;;;;4936312;29;20063;-41
2023/03/15 12:50:42;;;;;;;5.90;0.40;;;11.20;62.30;;;;;;4935557;28;20055;-43
2023/03/15 12:53:26;;;;;;;5.60;0.80;;;11.60;60.30;;;;;;4943467;28;20094;-41
2023/03/15 12:55:52;;;;;;;7.93;0.77;;;11.80;57.50;;;;;;4936292;28;20067;-41
2023/03/15 12:58:25;;;;;;;3.30;0.55;;;12.00;56.50;;;;;;4943868;28;20461;-43
2023/03/15 13:00:53;;;;;;;2.03;0.43;;;12.20;57.50;;;;;;4938381;28;20065;-42
2023/03/15 13:03:20;;;;;;;5.57;0.82;;;12.40;56.50;;;;;;4928122;28;20052;-42
2023/03/15 13:06:29;;;;;;;2.45;0.30;;;12.50;54.10;;;;;;4933325;28;20051;-41